createdAt,value
2023-05-05T00:00:04.429Z,37.75
2023-05-05T00:02:31.063Z,21.25
2023-05-05T00:04:57.623Z,37.00
2023-05-05T00:07:24.000Z,44.25
2023-05-05T00:09:50.386Z,38.00
2023-05-05T00:12:17.016Z,44.00
2023-05-05T00:14:43.466Z,39.50
2023-05-05T00:17:10.029Z,43.25
2023-05-05T00:19:37.032Z,41.50
2023-05-05T00:22:03.394Z,43.50
2023-05-05T00:24:29.788Z,37.25
2023-05-05T00:26:56.160Z,40.25
2023-05-05T00:29:22.624Z,40.00
2023-05-05T00:31:51.025Z,38.75
2023-05-05T00:34:17.784Z,41.25
2023-05-05T00:36:44.211Z,40.25
2023-05-05T00:39:10.906Z,42.75
2023-05-05T00:41:37.328Z,41.50
2023-05-05T00:44:03.864Z,39.50
2023-05-05T00:46:32.030Z,46.00
2023-05-05T00:48:59.791Z,46.75
2023-05-05T00:51:26.878Z,45.75
2023-05-05T00:53:53.448Z,48.25
2023-05-05T00:56:21.932Z,44.00
2023-05-05T00:58:49.128Z,46.25
2023-05-05T01:01:16.486Z,46.75
2023-05-05T01:03:43.002Z,49.25
2023-05-05T01:06:10.313Z,42.00
2023-05-05T01:08:51.249Z,50.00
2023-05-05T01:11:23.842Z,44.50
2023-05-05T01:13:58.055Z,41.75
2023-05-05T01:16:29.421Z,47.00
2023-05-05T01:19:14.556Z,47.00
2023-05-05T01:21:47.847Z,46.75
2023-05-05T01:24:23.173Z,51.25
2023-05-05T01:27:09.433Z,50.00
2023-05-05T01:29:54.319Z,50.00
2023-05-05T01:32:27.069Z,46.25
2023-05-05T01:34:58.622Z,46.00
2023-05-05T01:37:27.899Z,44.25
2023-05-05T01:39:57.500Z,46.00
2023-05-05T01:42:25.341Z,45.75
2023-05-05T01:44:52.586Z,45.75
2023-05-05T01:47:19.646Z,44.50
2023-05-05T01:49:47.152Z,46.25
2023-05-05T01:52:15.314Z,42.75
2023-05-05T01:54:42.992Z,44.75
2023-05-05T01:57:10.232Z,49.00
2023-05-05T01:59:37.986Z,43.75
2023-05-05T02:02:05.133Z,43.25
2023-05-05T02:04:33.222Z,46.75
2023-05-05T02:07:01.298Z,42.00
2023-05-05T02:09:28.414Z,46.25
2023-05-05T02:11:55.642Z,48.25
2023-05-05T02:14:23.214Z,46.50
2023-05-05T02:16:50.256Z,42.75
2023-05-05T02:19:21.459Z,42.25
2023-05-05T02:21:47.932Z,46.75
2023-05-05T02:24:17.442Z,43.25
2023-05-05T02:26:46.023Z,42.50
2023-05-05T02:29:38.914Z,45.00
2023-05-05T02:32:07.156Z,42.75
2023-05-05T02:34:38.481Z,39.50
2023-05-05T02:37:06.180Z,37.00
2023-05-05T02:39:38.441Z,40.25
2023-05-05T02:42:08.140Z,44.25
2023-05-05T02:44:36.032Z,41.00
2023-05-05T02:47:05.300Z,42.75
2023-05-05T02:49:31.808Z,41.00
2023-05-05T02:51:58.336Z,36.25
2023-05-05T02:54:24.891Z,37.50
2023-05-05T02:56:51.513Z,38.50
2023-05-05T02:59:21.905Z,37.25
2023-05-05T03:01:51.405Z,37.50
2023-05-05T03:04:23.834Z,36.00
2023-05-05T03:06:51.434Z,34.75
2023-05-05T03:09:20.983Z,33.00
2023-05-05T03:11:52.426Z,35.25
2023-05-05T03:14:21.626Z,33.50
2023-05-05T03:16:49.389Z,34.50
2023-05-05T03:19:17.837Z,15.00
2023-05-05T03:21:44.544Z,31.25
2023-05-05T03:24:15.559Z,27.50
2023-05-05T03:26:42.297Z,35.00
2023-05-05T03:29:08.950Z,33.00
2023-05-05T03:31:37.820Z,24.00
2023-05-05T03:34:04.262Z,31.25
2023-05-05T03:36:30.743Z,27.75
2023-05-05T03:38:58.129Z,26.25
2023-05-05T03:41:24.992Z,23.75
2023-05-05T03:43:51.572Z,29.00
2023-05-05T03:46:18.169Z,30.00
2023-05-05T03:48:44.707Z,28.50
2023-05-05T03:51:12.289Z,27.75
2023-05-05T03:53:38.793Z,26.00
2023-05-05T03:56:05.461Z,30.00
2023-05-05T03:58:31.936Z,29.50
2023-05-05T04:00:58.528Z,31.00
2023-05-05T04:03:25.221Z,33.25
2023-05-05T04:05:51.836Z,29.25
2023-05-05T04:08:18.332Z,31.00
2023-05-05T04:10:45.700Z,30.75
2023-05-05T04:13:12.233Z,30.00
2023-05-05T04:15:38.747Z,25.25
2023-05-05T04:18:05.497Z,25.33
2023-05-05T04:20:34.586Z,30.50
2023-05-05T04:23:01.026Z,26.67
2023-05-05T04:25:27.385Z,24.33
2023-05-05T04:27:53.764Z,32.67
2023-05-05T04:30:22.476Z,18.25
2023-05-05T04:32:48.927Z,33.25
2023-05-05T04:35:17.549Z,29.00
2023-05-05T04:37:43.966Z,33.00
2023-05-05T04:40:10.730Z,29.67
2023-05-05T04:42:37.755Z,30.75
2023-05-05T04:45:04.415Z,37.75
2023-05-05T04:47:30.866Z,31.00
2023-05-05T04:49:57.345Z,30.33
2023-05-05T04:52:23.831Z,27.33
2023-05-05T04:54:50.455Z,29.00
2023-05-05T04:57:16.799Z,29.33
2023-05-05T04:59:43.297Z,30.00
2023-05-05T05:02:09.716Z,38.00
2023-05-05T05:04:36.176Z,38.00
2023-05-05T05:07:02.609Z,29.67
2023-05-05T05:09:29.055Z,28.67
2023-05-05T05:11:59.094Z,32.00
2023-05-05T05:14:25.685Z,31.67
2023-05-05T05:16:52.542Z,29.67
2023-05-05T05:19:19.069Z,25.33
2023-05-05T05:21:45.434Z,28.00
2023-05-05T05:24:12.326Z,25.67
2023-05-05T05:26:39.082Z,35.67
2023-05-05T05:29:05.524Z,37.33
2023-05-05T05:31:31.967Z,38.50
2023-05-05T05:34:00.981Z,34.00
2023-05-05T05:36:28.518Z,35.33
2023-05-05T05:38:54.959Z,33.33
2023-05-05T05:41:21.714Z,25.00
2023-05-05T05:43:48.138Z,31.67
2023-05-05T05:46:14.763Z,28.67
2023-05-05T05:48:41.276Z,24.67
2023-05-05T05:51:07.631Z,25.50
2023-05-05T05:53:34.033Z,26.75
2023-05-05T05:56:01.533Z,23.00
2023-05-05T05:58:27.993Z,26.00
2023-05-05T06:00:54.634Z,27.25
2023-05-05T06:03:21.187Z,23.75
2023-05-05T06:05:47.791Z,23.50
2023-05-05T06:08:14.294Z,20.75
2023-05-05T06:10:41.172Z,26.00
2023-05-05T06:13:07.782Z,23.75
2023-05-05T06:15:34.230Z,22.00
2023-05-05T06:18:00.710Z,19.25
2023-05-05T06:20:27.656Z,20.25
2023-05-05T06:22:54.089Z,31.50
2023-05-05T06:25:20.535Z,50.25
2023-05-05T06:27:46.893Z,36.33
2023-05-05T06:30:14.803Z,30.00
2023-05-05T06:32:41.294Z,26.75
2023-05-05T06:35:07.984Z,23.25
2023-05-05T06:37:34.364Z,19.25
2023-05-05T06:40:00.798Z,16.50
2023-05-05T06:42:27.379Z,21.50
2023-05-05T06:44:53.726Z,26.00
2023-05-05T06:47:20.300Z,21.75
2023-05-05T06:49:46.660Z,19.75
2023-05-05T06:52:13.068Z,18.00
2023-05-05T06:54:39.450Z,21.00
2023-05-05T06:57:06.225Z,18.50
2023-05-05T06:59:32.693Z,18.00
2023-05-05T07:01:59.726Z,17.00
2023-05-05T07:04:26.863Z,16.50
2023-05-05T07:06:55.299Z,16.75
2023-05-05T07:09:21.696Z,14.50
2023-05-05T07:11:48.061Z,21.50
2023-05-05T07:14:14.496Z,19.00
2023-05-05T07:16:40.975Z,16.00
2023-05-05T07:19:07.528Z,18.25
2023-05-05T07:21:34.214Z,16.25
2023-05-05T07:24:01.345Z,18.00
2023-05-05T07:26:28.002Z,13.33
2023-05-05T07:28:57.229Z,13.00
2023-05-05T07:31:23.705Z,13.25
2023-05-05T07:33:50.246Z,11.25
2023-05-05T07:36:17.917Z,14.25
2023-05-05T07:38:44.455Z,12.00
2023-05-05T07:41:12.970Z,12.00
2023-05-05T07:43:44.268Z,12.75
2023-05-05T07:46:11.254Z,14.75
2023-05-05T07:48:39.107Z,13.00
2023-05-05T07:51:05.526Z,10.25
2023-05-05T07:53:32.067Z,10.50
2023-05-05T07:55:58.492Z,13.25
2023-05-05T07:58:24.884Z,11.75
2023-05-05T08:00:51.420Z,11.75
2023-05-05T08:03:20.153Z,16.25
2023-05-05T08:05:46.919Z,10.25
2023-05-05T08:08:13.348Z,11.00
2023-05-05T08:10:40.072Z,12.25
2023-05-05T08:13:06.551Z,11.25
2023-05-05T08:15:33.030Z,11.00
2023-05-05T08:17:59.473Z,11.00
2023-05-05T08:20:28.246Z,12.75
2023-05-05T08:22:54.645Z,10.00
2023-05-05T08:25:21.099Z,7.25
2023-05-05T08:27:47.564Z,7.25
2023-05-05T08:30:14.349Z,8.00
2023-05-05T08:32:40.938Z,9.00
2023-05-05T08:35:08.224Z,8.00
2023-05-05T08:37:35.001Z,8.00
2023-05-05T08:40:01.451Z,9.25
2023-05-05T08:42:37.173Z,9.00
2023-05-05T08:45:06.527Z,8.00
2023-05-05T08:47:33.270Z,8.00
2023-05-05T08:50:00.231Z,7.00
2023-05-05T08:52:28.841Z,6.25
2023-05-05T08:54:57.815Z,6.50
2023-05-05T08:57:30.685Z,7.25
2023-05-05T08:59:58.052Z,7.00
2023-05-05T09:02:28.542Z,5.75
2023-05-05T09:04:55.155Z,5.00
2023-05-05T09:07:21.599Z,6.25
2023-05-05T09:09:48.243Z,6.00
2023-05-05T09:12:17.948Z,6.00
2023-05-05T09:14:46.104Z,4.00
2023-05-05T09:17:27.741Z,4.00
2023-05-05T09:20:04.906Z,4.00
2023-05-05T09:22:35.993Z,3.00
2023-05-05T09:25:02.713Z,6.00
2023-05-05T09:27:29.298Z,5.00
2023-05-05T09:29:56.593Z,4.50
2023-05-05T09:32:23.079Z,4.00
2023-05-05T09:34:59.202Z,4.00
2023-05-05T09:37:29.608Z,6.50
2023-05-05T09:39:56.815Z,5.50
2023-05-05T09:42:23.251Z,4.75
2023-05-05T09:44:49.684Z,4.25
2023-05-05T09:47:28.450Z,4.25
2023-05-05T09:50:01.312Z,4.25
2023-05-05T09:52:27.750Z,6.25
2023-05-05T09:54:57.323Z,4.50
2023-05-05T09:57:33.616Z,5.00
2023-05-05T10:00:01.264Z,5.00
2023-05-05T10:02:32.530Z,4.25
2023-05-05T10:05:06.147Z,4.25
2023-05-05T10:07:32.752Z,5.75
2023-05-05T10:09:59.140Z,5.00
2023-05-05T10:12:25.759Z,5.50
2023-05-05T10:14:55.994Z,5.50
2023-05-05T10:17:22.797Z,3.50
2023-05-05T10:19:52.741Z,4.25
2023-05-05T10:22:22.008Z,4.25
2023-05-05T10:24:57.264Z,4.75
2023-05-05T10:27:24.679Z,5.25
2023-05-05T10:30:03.091Z,5.00
2023-05-05T10:32:52.916Z,5.25
2023-05-05T10:35:23.094Z,4.50
2023-05-05T10:37:49.850Z,2.25
2023-05-05T10:40:17.708Z,4.00
2023-05-05T10:42:44.261Z,4.50
2023-05-05T10:45:10.773Z,5.50
2023-05-05T10:47:37.782Z,3.25
2023-05-05T10:50:09.493Z,4.25
2023-05-05T10:52:48.183Z,4.00
2023-05-05T10:55:19.361Z,3.75
2023-05-05T10:57:46.494Z,6.50
2023-05-05T11:00:36.362Z,3.50
2023-05-05T11:03:18.161Z,4.75
2023-05-05T11:06:14.481Z,3.75
2023-05-05T11:08:42.279Z,4.50
2023-05-05T11:11:12.124Z,3.75
2023-05-05T11:13:39.305Z,5.25
2023-05-05T11:16:06.457Z,4.00
2023-05-05T11:18:36.043Z,3.75
2023-05-05T11:21:15.711Z,6.75
2023-05-05T11:23:45.371Z,1.25
2023-05-05T11:26:12.688Z,4.00
2023-05-05T11:28:59.289Z,4.00
2023-05-05T11:31:26.560Z,3.25
2023-05-05T11:33:53.302Z,4.25
2023-05-05T11:36:20.530Z,0.00
2023-05-05T11:39:02.608Z,4.00
2023-05-05T11:41:29.071Z,4.25
2023-05-05T11:44:14.418Z,5.75
2023-05-05T11:46:41.785Z,4.00
2023-05-05T11:49:09.269Z,4.00
2023-05-05T11:51:38.441Z,4.75
2023-05-05T11:54:05.056Z,5.00
2023-05-05T11:56:31.446Z,4.00
2023-05-05T11:59:08.682Z,4.00
2023-05-05T12:01:35.816Z,5.00
2023-05-05T12:04:02.466Z,3.75
2023-05-05T12:06:32.150Z,4.75
2023-05-05T12:08:58.600Z,5.00
2023-05-05T12:11:25.349Z,4.25
2023-05-05T12:14:06.656Z,3.75
2023-05-05T12:16:33.201Z,3.75
2023-05-05T12:19:03.801Z,6.25
2023-05-05T12:21:30.626Z,5.50
2023-05-05T12:23:57.106Z,4.00
2023-05-05T12:26:28.051Z,4.50
2023-05-05T12:28:57.060Z,5.25
2023-05-05T12:31:23.642Z,5.00
2023-05-05T12:33:50.418Z,4.50
2023-05-05T12:36:17.116Z,4.50
2023-05-05T12:38:43.648Z,4.50
2023-05-05T12:41:10.080Z,2.75
2023-05-05T12:43:36.641Z,4.25
2023-05-05T12:46:04.991Z,2.75
2023-05-05T12:48:31.867Z,4.00
2023-05-05T12:51:14.623Z,4.50
2023-05-05T12:53:41.228Z,3.50
2023-05-05T12:56:27.592Z,4.50
2023-05-05T12:58:55.630Z,4.00
2023-05-05T13:01:22.183Z,6.00
2023-05-05T13:04:03.724Z,3.25
2023-05-05T13:06:30.118Z,3.00
2023-05-05T13:08:57.163Z,4.00
2023-05-05T13:11:23.525Z,4.00
2023-05-05T13:13:49.942Z,5.00
2023-05-05T13:16:16.510Z,4.75
2023-05-05T13:18:43.664Z,4.25
2023-05-05T13:21:10.162Z,4.00
2023-05-05T13:23:36.555Z,4.25
2023-05-05T13:26:03.465Z,3.75
2023-05-05T13:28:29.929Z,4.75
2023-05-05T13:30:58.059Z,3.75
2023-05-05T13:33:24.555Z,5.00
2023-05-05T13:35:50.908Z,4.00
2023-05-05T13:38:17.282Z,3.00
2023-05-05T13:40:43.666Z,4.75
2023-05-05T13:43:10.021Z,3.75
2023-05-05T13:45:36.504Z,5.00
2023-05-05T13:48:02.943Z,3.75
2023-05-05T13:50:29.497Z,3.75
2023-05-05T13:52:55.855Z,3.75
2023-05-05T13:55:22.209Z,2.75
2023-05-05T13:57:48.709Z,5.00
2023-05-05T14:00:15.902Z,4.50
2023-05-05T14:02:42.752Z,3.00
2023-05-05T14:05:09.910Z,3.75
2023-05-05T14:07:36.615Z,5.25
2023-05-05T14:10:03.022Z,4.75
2023-05-05T14:12:29.455Z,4.50
2023-05-05T14:14:55.848Z,4.25
2023-05-05T14:17:22.231Z,4.25
2023-05-05T14:19:48.690Z,4.25
2023-05-05T14:22:15.104Z,5.75
2023-05-05T14:24:41.521Z,5.00
2023-05-05T14:27:07.956Z,3.75
2023-05-05T14:29:34.390Z,4.75
2023-05-05T14:32:00.868Z,4.00
2023-05-05T14:34:27.450Z,3.00
2023-05-05T14:36:53.900Z,2.25
2023-05-05T14:39:20.421Z,3.00
2023-05-05T14:41:46.831Z,4.00
2023-05-05T14:44:13.301Z,3.25
2023-05-05T14:46:39.689Z,4.25
2023-05-05T14:49:06.220Z,4.00
2023-05-05T14:51:32.637Z,3.75
2023-05-05T14:53:59.055Z,4.25
2023-05-05T14:56:26.524Z,4.50
2023-05-05T14:58:53.022Z,4.50
2023-05-05T15:01:21.045Z,5.25
2023-05-05T15:03:47.591Z,4.75
2023-05-05T15:06:14.083Z,3.75
2023-05-05T15:08:40.688Z,6.50
2023-05-05T15:11:07.163Z,5.50
2023-05-05T15:13:33.591Z,6.25
2023-05-05T15:15:59.995Z,5.75
2023-05-05T15:18:26.364Z,4.50
2023-05-05T15:20:52.833Z,4.00
2023-05-05T15:23:19.315Z,5.75
2023-05-05T15:25:45.778Z,5.25
2023-05-05T15:28:12.235Z,4.75
2023-05-05T15:30:38.642Z,5.00
2023-05-05T15:33:05.077Z,7.00
2023-05-05T15:35:31.461Z,7.00
2023-05-05T15:37:58.129Z,7.25
2023-05-05T15:40:24.636Z,8.50
2023-05-05T15:42:51.445Z,9.50
2023-05-05T15:45:17.919Z,7.25
2023-05-05T15:47:44.544Z,7.50
2023-05-05T15:50:11.161Z,7.00
2023-05-05T15:52:37.632Z,7.50
2023-05-05T15:55:04.288Z,7.25
2023-05-05T15:57:30.697Z,8.00
2023-05-05T15:59:57.066Z,8.75
2023-05-05T16:02:23.628Z,9.00
2023-05-05T16:04:50.452Z,10.00
2023-05-05T16:07:17.239Z,42.50
2023-05-05T16:09:44.401Z,43.25
2023-05-05T16:12:10.852Z,11.00
2023-05-05T16:14:37.221Z,7.00
2023-05-05T16:17:03.676Z,9.00
2023-05-05T16:19:31.273Z,10.00
2023-05-05T16:21:57.665Z,7.75
2023-05-05T16:24:24.080Z,6.75
2023-05-05T16:26:51.428Z,8.25
2023-05-05T16:29:17.848Z,9.25
2023-05-05T16:31:44.271Z,10.75
2023-05-05T16:34:10.739Z,10.00
2023-05-05T16:36:37.226Z,8.25
2023-05-05T16:39:03.911Z,9.00
2023-05-05T16:41:30.436Z,10.25
2023-05-05T16:43:56.878Z,13.00
2023-05-05T16:46:23.343Z,11.75
2023-05-05T16:48:49.820Z,9.00
2023-05-05T16:51:16.234Z,11.25
2023-05-05T16:53:42.682Z,8.00
2023-05-05T16:56:11.946Z,8.25
2023-05-05T16:58:38.447Z,12.50
2023-05-05T17:01:04.885Z,15.75
2023-05-05T17:03:31.410Z,8.25
2023-05-05T17:05:58.019Z,8.00
2023-05-05T17:08:24.576Z,0.25
2023-05-05T17:10:51.182Z,11.00
2023-05-05T17:13:17.769Z,10.50
2023-05-05T17:15:44.456Z,10.25
2023-05-05T17:18:10.969Z,7.75
2023-05-05T17:20:37.549Z,5.75
2023-05-05T17:23:05.002Z,9.75
2023-05-05T17:25:31.854Z,9.75
2023-05-05T17:27:58.341Z,8.00
2023-05-05T17:30:24.933Z,9.75
2023-05-05T17:32:51.473Z,7.00
2023-05-05T17:35:18.069Z,10.25
2023-05-05T17:37:44.558Z,5.00
2023-05-05T17:40:11.157Z,6.50
2023-05-05T17:42:38.307Z,7.00
2023-05-05T17:45:05.350Z,9.00
2023-05-05T17:47:32.089Z,5.25
2023-05-05T17:49:59.162Z,5.00
2023-05-05T17:52:26.284Z,5.25
2023-05-05T17:54:52.750Z,5.75
2023-05-05T17:57:21.225Z,7.75
2023-05-05T17:59:53.515Z,6.00
2023-05-05T18:02:20.925Z,9.75
2023-05-05T18:04:47.814Z,6.00
2023-05-05T18:07:14.797Z,12.25
2023-05-05T18:09:41.792Z,6.50
2023-05-05T18:12:08.353Z,7.75
2023-05-05T18:14:34.858Z,10.75
2023-05-05T18:17:01.367Z,7.00
2023-05-05T18:19:27.890Z,4.75
2023-05-05T18:21:54.722Z,5.50
2023-05-05T18:24:21.176Z,5.00
2023-05-05T18:26:49.627Z,5.25
2023-05-05T18:29:16.793Z,6.00
2023-05-05T18:31:45.951Z,6.75
2023-05-05T18:34:12.650Z,5.75
2023-05-05T18:36:39.191Z,10.00
2023-05-05T18:39:05.607Z,6.00
2023-05-05T18:41:32.469Z,6.25
2023-05-05T18:43:59.094Z,5.75
2023-05-05T18:46:25.621Z,5.50
2023-05-05T18:48:52.122Z,6.75
2023-05-05T18:51:18.599Z,5.50
2023-05-05T18:53:45.108Z,6.00
2023-05-05T18:56:11.526Z,5.25
2023-05-05T18:58:37.906Z,6.00
2023-05-05T19:01:04.510Z,4.25
2023-05-05T19:03:31.326Z,6.00
2023-05-05T19:05:57.708Z,4.50
2023-05-05T19:08:24.154Z,3.25
2023-05-05T19:10:50.716Z,5.75
2023-05-05T19:13:17.486Z,5.25
2023-05-05T19:15:44.690Z,6.00
2023-05-05T19:18:11.585Z,4.75
2023-05-05T19:20:38.762Z,5.00
2023-05-05T19:23:05.547Z,5.50
2023-05-05T19:25:32.008Z,6.50
2023-05-05T19:27:58.465Z,6.00
2023-05-05T19:30:24.892Z,7.00
2023-05-05T19:32:51.393Z,8.00
2023-05-05T19:35:17.846Z,5.50
2023-05-05T19:37:44.291Z,6.00
2023-05-05T19:40:11.214Z,6.00
2023-05-05T19:42:37.998Z,5.75
2023-05-05T19:45:04.696Z,6.50
2023-05-05T19:47:31.507Z,4.25
2023-05-05T19:49:57.929Z,5.00
2023-05-05T19:52:24.596Z,5.50
2023-05-05T19:54:51.240Z,14.75
2023-05-05T19:57:17.827Z,5.00
2023-05-05T19:59:45.177Z,7.50
2023-05-05T20:02:12.922Z,6.00
